sensor_id;sensor_type;location;lat;lon;timestamp;pressure;altitude;pressure_sealevel;temperature;humidity
52839;BME280;39219;53.678;9.856;2023-04-28T00:00:56;77904.69;;;-147.77;86.08
52839;BME280;39219;53.678;9.856;2023-04-28T00:03:22;77900.63;;;-147.77;86.13
52839;BME280;39219;53.678;9.856;2023-04-28T00:05:49;77898.59;;;-147.77;86.38
52839;BME280;39219;53.678;9.856;2023-04-28T00:08:15;77914.78;;;-147.77;86.41
52839;BME280;39219;53.678;9.856;2023-04-28T00:10:41;77908.72;;;-147.77;86.69
52839;BME280;39219;53.678;9.856;2023-04-28T00:13:09;77900.63;;;-147.77;87.18
52839;BME280;39219;53.678;9.856;2023-04-28T00:15:36;77900.63;;;-147.77;86.83
52839;BME280;39219;53.678;9.856;2023-04-28T00:18:02;77916.81;;;-147.77;86.92
52839;BME280;39219;53.678;9.856;2023-04-28T00:20:29;77914.78;;;-147.77;87.43
52839;BME280;39219;53.678;9.856;2023-04-28T00:22:55;77912.78;;;-147.77;87.57
52839;BME280;39219;53.678;9.856;2023-04-28T00:25:22;77898.59;;;-147.77;87.96
52839;BME280;39219;53.678;9.856;2023-04-28T00:27:48;77908.72;;;-147.77;87.78
52839;BME280;39219;53.678;9.856;2023-04-28T00:30:16;77908.72;;;-147.77;87.61
52839;BME280;39219;53.678;9.856;2023-04-28T00:32:43;77920.88;;;-147.77;87.59
52839;BME280;39219;53.678;9.856;2023-04-28T00:35:09;77928.97;;;-147.77;87.49
52839;BME280;39219;53.678;9.856;2023-04-28T00:37:36;77930.97;;;-147.77;87.53
52839;BME280;39219;53.678;9.856;2023-04-28T00:40:03;77935.03;;;-147.77;87.39
52839;BME280;39219;53.678;9.856;2023-04-28T00:42:30;77933.00;;;-147.77;87.31
52839;BME280;39219;53.678;9.856;2023-04-28T00:44:56;77941.09;;;-147.77;87.08
52839;BME280;39219;53.678;9.856;2023-04-28T00:47:24;77961.34;;;-147.77;87.06
52839;BME280;39219;53.678;9.856;2023-04-28T00:49:51;77971.44;;;-147.77;87.60
52839;BME280;39219;53.678;9.856;2023-04-28T00:52:18;77965.38;;;-147.77;87.71
52839;BME280;39219;53.678;9.856;2023-04-28T00:54:44;77957.28;;;-147.77;87.92
52839;BME280;39219;53.678;9.856;2023-04-28T00:57:12;77969.44;;;-147.77;87.80
52839;BME280;39219;53.678;9.856;2023-04-28T00:59:38;77979.53;;;-147.77;87.82
52839;BME280;39219;53.678;9.856;2023-04-28T01:02:05;77979.53;;;-147.77;88.15
52839;BME280;39219;53.678;9.856;2023-04-28T01:04:34;77981.56;;;-147.77;88.22
52839;BME280;39219;53.678;9.856;2023-04-28T01:07:01;77997.75;;;-147.77;88.55
52839;BME280;39219;53.678;9.856;2023-04-28T01:09:28;78009.91;;;-147.77;88.20
52839;BME280;39219;53.678;9.856;2023-04-28T01:11:54;78022.03;;;-147.77;87.64
52839;BME280;39219;53.678;9.856;2023-04-28T01:14:22;78032.16;;;-147.77;88.10
52839;BME280;39219;53.678;9.856;2023-04-28T01:16:49;78054.41;;;-147.77;88.08
52839;BME280;39219;53.678;9.856;2023-04-28T01:19:19;78078.72;;;-147.77;88.45
52839;BME280;39219;53.678;9.856;2023-04-28T01:21:48;78070.59;;;-147.77;89.25
52839;BME280;39219;53.678;9.856;2023-04-28T01:24:16;78054.41;;;-147.77;90.13
52839;BME280;39219;53.678;9.856;2023-04-28T01:26:43;78052.41;;;-147.77;90.25
52839;BME280;39219;53.678;9.856;2023-04-28T01:29:10;78054.41;;;-147.77;90.15
52839;BME280;39219;53.678;9.856;2023-04-28T01:31:36;78050.38;;;-147.77;90.16
52839;BME280;39219;53.678;9.856;2023-04-28T01:34:03;78050.38;;;-147.77;90.19
52839;BME280;39219;53.678;9.856;2023-04-28T01:36:30;78056.44;;;-147.77;90.60
52839;BME280;39219;53.678;9.856;2023-04-28T01:38:57;78060.50;;;-147.77;90.70
52839;BME280;39219;53.678;9.856;2023-04-28T01:41:25;78058.47;;;-147.77;90.95
52839;BME280;39219;53.678;9.856;2023-04-28T01:43:51;78062.53;;;-147.77;91.21
52839;BME280;39219;53.678;9.856;2023-04-28T01:46:18;78048.34;;;-147.77;91.09
52839;BME280;39219;53.678;9.856;2023-04-28T01:48:44;78048.34;;;-147.77;91.39
52839;BME280;39219;53.678;9.856;2023-04-28T01:51:11;78044.31;;;-147.77;91.08
52839;BME280;39219;53.678;9.856;2023-04-28T01:53:38;78046.31;;;-147.77;90.97
52839;BME280;39219;53.678;9.856;2023-04-28T01:56:04;78050.38;;;-147.77;91.10
52839;BME280;39219;53.678;9.856;2023-04-28T01:58:32;78060.50;;;-147.77;90.79
52839;BME280;39219;53.678;9.856;2023-04-28T02:00:59;78074.66;;;-147.77;90.76
52839;BME280;39219;53.678;9.856;2023-04-28T02:03:25;78078.72;;;-147.77;91.38
52839;BME280;39219;53.678;9.856;2023-04-28T02:05:52;78068.59;;;-147.77;91.63
52839;BME280;39219;53.678;9.856;2023-04-28T02:08:18;78066.56;;;-147.77;92.00
52839;BME280;39219;53.678;9.856;2023-04-28T02:10:45;78072.63;;;-147.77;91.88
52839;BME280;39219;53.678;9.856;2023-04-28T02:13:11;78060.50;;;-147.77;91.96
52839;BME280;39219;53.678;9.856;2023-04-28T02:15:40;78066.56;;;-147.77;91.97
52839;BME280;39219;53.678;9.856;2023-04-28T02:18:06;78074.66;;;-147.77;92.08
52839;BME280;39219;53.678;9.856;2023-04-28T02:20:33;78068.59;;;-147.77;91.81
52839;BME280;39219;53.678;9.856;2023-04-28T02:22:59;78070.59;;;-147.77;91.95
52839;BME280;39219;53.678;9.856;2023-04-28T02:25:26;78064.53;;;-147.77;91.91
52839;BME280;39219;53.678;9.856;2023-04-28T02:27:53;78058.47;;;-147.77;91.68
52839;BME280;39219;53.678;9.856;2023-04-28T02:30:19;78062.53;;;-147.77;91.74
52839;BME280;39219;53.678;9.856;2023-04-28T02:32:48;78066.56;;;-147.77;91.67
52839;BME280;39219;53.678;9.856;2023-04-28T02:35:14;78076.69;;;-147.77;92.36
52839;BME280;39219;53.678;9.856;2023-04-28T02:37:41;78068.59;;;-147.77;92.50
52839;BME280;39219;53.678;9.856;2023-04-28T02:40:08;78074.66;;;-147.77;92.31
52839;BME280;39219;53.678;9.856;2023-04-28T02:42:34;78060.50;;;-147.77;92.41
52839;BME280;39219;53.678;9.856;2023-04-28T02:45:01;78062.53;;;-147.77;92.32
52839;BME280;39219;53.678;9.856;2023-04-28T02:47:27;78064.53;;;-147.77;92.51
52839;BME280;39219;53.678;9.856;2023-04-28T02:49:55;78058.47;;;-147.77;92.30
52839;BME280;39219;53.678;9.856;2023-04-28T02:52:21;78062.53;;;-147.77;92.50
52839;BME280;39219;53.678;9.856;2023-04-28T02:54:48;78070.59;;;-147.77;92.43
52839;BME280;39219;53.678;9.856;2023-04-28T02:57:19;78068.59;;;-147.77;92.62
52839;BME280;39219;53.678;9.856;2023-04-28T02:59:45;78060.50;;;-147.77;92.94
52839;BME280;39219;53.678;9.856;2023-04-28T03:02:12;78060.50;;;-147.77;92.93
52839;BME280;39219;53.678;9.856;2023-04-28T03:04:38;78042.28;;;-147.77;93.07
52839;BME280;39219;53.678;9.856;2023-04-28T03:07:07;78024.06;;;-147.77;92.42
52839;BME280;39219;53.678;9.856;2023-04-28T03:09:33;78030.13;;;-147.77;92.53
52839;BME280;39219;53.678;9.856;2023-04-28T03:12:00;78030.13;;;-147.77;92.88
52839;BME280;39219;53.678;9.856;2023-04-28T03:14:26;78030.13;;;-147.77;92.50
52839;BME280;39219;53.678;9.856;2023-04-28T03:16:53;78024.06;;;-147.77;92.27
52839;BME280;39219;53.678;9.856;2023-04-28T03:19:20;78015.97;;;-147.77;92.46
52839;BME280;39219;53.678;9.856;2023-04-28T03:21:46;78015.97;;;-147.77;92.28
52839;BME280;39219;53.678;9.856;2023-04-28T03:24:14;78009.91;;;-147.77;91.96
52839;BME280;39219;53.678;9.856;2023-04-28T03:26:41;78005.84;;;-147.77;91.80
52839;BME280;39219;53.678;9.856;2023-04-28T03:29:07;78009.91;;;-147.77;91.42
52839;BME280;39219;53.678;9.856;2023-04-28T03:31:34;77999.78;;;-147.77;91.71
52839;BME280;39219;53.678;9.856;2023-04-28T03:34:00;77997.75;;;-147.77;90.76
52839;BME280;39219;53.678;9.856;2023-04-28T03:36:27;77997.75;;;-147.77;90.48
52839;BME280;39219;53.678;9.856;2023-04-28T03:38:54;78009.91;;;-147.77;90.92
52839;BME280;39219;53.678;9.856;2023-04-28T03:41:21;78011.94;;;-147.77;90.83
52839;BME280;39219;53.678;9.856;2023-04-28T03:43:48;78018.00;;;-147.77;91.09
52839;BME280;39219;53.678;9.856;2023-04-28T03:46:16;78013.94;;;-147.77;91.57
52839;BME280;39219;53.678;9.856;2023-04-28T03:48:42;78007.88;;;-147.77;90.92
52839;BME280;39219;53.678;9.856;2023-04-28T03:51:10;77999.78;;;-147.77;90.59
52839;BME280;39219;53.678;9.856;2023-04-28T03:53:36;77993.72;;;-147.77;90.18
52839;BME280;39219;53.678;9.856;2023-04-28T03:56:03;77991.69;;;-147.77;90.08
52839;BME280;39219;53.678;9.856;2023-04-28T03:58:31;77989.66;;;-147.77;90.25
52839;BME280;39219;53.678;9.856;2023-04-28T04:00:58;77997.75;;;-147.77;90.10
52839;BME280;39219;53.678;9.856;2023-04-28T04:03:25;77997.75;;;-147.77;90.25
52839;BME280;39219;53.678;9.856;2023-04-28T04:05:51;77989.66;;;-147.77;89.83
52839;BME280;39219;53.678;9.856;2023-04-28T04:08:19;77985.63;;;-147.77;90.17
52839;BME280;39219;53.678;9.856;2023-04-28T04:10:45;77975.50;;;-147.77;89.50
52839;BME280;39219;53.678;9.856;2023-04-28T04:13:12;77977.53;;;-147.77;89.44
52839;BME280;39219;53.678;9.856;2023-04-28T04:15:40;77971.44;;;-147.77;89.26
52839;BME280;39219;53.678;9.856;2023-04-28T04:18:06;77971.44;;;-147.77;89.18
52839;BME280;39219;53.678;9.856;2023-04-28T04:20:32;77957.28;;;-147.77;89.03
52839;BME280;39219;53.678;9.856;2023-04-28T04:22:59;77937.06;;;-147.77;88.44
52839;BME280;39219;53.678;9.856;2023-04-28T04:25:25;77949.19;;;-147.77;87.70
52839;BME280;39219;53.678;9.856;2023-04-28T04:27:52;77930.97;;;-147.77;88.08
52839;BME280;39219;53.678;9.856;2023-04-28T04:30:19;77930.97;;;-147.77;88.16
52839;BME280;39219;53.678;9.856;2023-04-28T04:32:46;77916.81;;;-147.77;87.59
52839;BME280;39219;53.678;9.856;2023-04-28T04:35:13;77918.84;;;-147.77;87.57
52839;BME280;39219;53.678;9.856;2023-04-28T04:37:39;77888.47;;;-147.77;86.98
52839;BME280;39219;53.678;9.856;2023-04-28T04:40:07;77880.38;;;-147.77;86.26
52839;BME280;39219;53.678;9.856;2023-04-28T04:42:33;77864.19;;;-147.77;85.82
52839;BME280;39219;53.678;9.856;2023-04-28T04:45:00;77846.00;;;-147.77;85.12
52839;BME280;39219;53.678;9.856;2023-04-28T04:47:26;77839.91;;;-147.77;84.71
52839;BME280;39219;53.678;9.856;2023-04-28T04:49:54;77839.91;;;-147.77;83.88
52839;BME280;39219;53.678;9.856;2023-04-28T04:52:21;77817.66;;;-147.77;84.23
52839;BME280;39219;53.678;9.856;2023-04-28T04:54:47;77793.38;;;-147.77;83.48
52839;BME280;39219;53.678;9.856;2023-04-28T04:57:14;77771.13;;;-147.77;82.43
52839;BME280;39219;53.678;9.856;2023-04-28T04:59:40;77761.00;;;-147.77;81.72
52839;BME280;39219;53.678;9.856;2023-04-28T05:02:07;77750.88;;;-147.77;81.01
52839;BME280;39219;53.678;9.856;2023-04-28T05:04:33;77738.75;;;-147.77;79.45
52839;BME280;39219;53.678;9.856;2023-04-28T05:07:01;77724.56;;;-147.77;80.38
52839;BME280;39219;53.678;9.856;2023-04-28T05:09:28;77724.56;;;-147.77;79.77
52839;BME280;39219;53.678;9.856;2023-04-28T05:11:56;77690.19;;;-147.77;79.33
52839;BME280;39219;53.678;9.856;2023-04-28T05:14:22;77680.06;;;-147.77;77.93
52839;BME280;39219;53.678;9.856;2023-04-28T05:16:49;77661.84;;;-147.77;78.32
52839;BME280;39219;53.678;9.856;2023-04-28T05:19:16;77649.72;;;-147.77;78.00
52839;BME280;39219;53.678;9.856;2023-04-28T05:21:43;77637.56;;;-147.77;77.70
52839;BME280;39219;53.678;9.856;2023-04-28T05:24:13;77607.22;;;-147.77;77.54
52839;BME280;39219;53.678;9.856;2023-04-28T05:26:39;77597.09;;;-147.77;75.38
52839;BME280;39219;53.678;9.856;2023-04-28T05:29:06;77528.31;;;-147.77;76.40
52839;BME280;39219;53.678;9.856;2023-04-28T05:31:32;77350.25;;;-147.77;71.52
52839;BME280;39219;53.678;9.856;2023-04-28T05:33:59;77141.84;;;-147.77;62.27
52839;BME280;39219;53.678;9.856;2023-04-28T05:36:25;76945.59;;;-147.77;57.07
52839;BME280;39219;53.678;9.856;2023-04-28T05:38:52;76787.81;;;-147.77;54.20
52839;BME280;39219;53.678;9.856;2023-04-28T05:41:20;76723.06;;;-147.77;46.67
52839;BME280;39219;53.678;9.856;2023-04-28T05:43:46;76702.84;;;-147.77;46.56
52839;BME280;39219;53.678;9.856;2023-04-28T05:46:15;76636.09;;;-147.77;44.41
52839;BME280;39219;53.678;9.856;2023-04-28T05:48:42;76601.69;;;-147.77;42.47
52839;BME280;39219;53.678;9.856;2023-04-28T05:51:08;76545.06;;;-147.77;41.78
52839;BME280;39219;53.678;9.856;2023-04-28T05:53:34;76488.41;;;-147.77;42.94
52839;BME280;39219;53.678;9.856;2023-04-28T05:56:01;76296.25;;;-147.77;40.24
52839;BME280;39219;53.678;9.856;2023-04-28T05:58:29;76255.78;;;-147.77;39.22
52839;BME280;39219;53.678;9.856;2023-04-28T06:00:55;76241.63;;;-147.77;38.25
52839;BME280;39219;53.678;9.856;2023-04-28T06:03:22;76148.59;;;-147.77;35.87
52839;BME280;39219;53.678;9.856;2023-04-28T06:05:48;76124.31;;;-147.77;37.08
52839;BME280;39219;53.678;9.856;2023-04-28T06:08:15;76134.44;;;-147.77;36.26
52839;BME280;39219;53.678;9.856;2023-04-28T06:10:41;75938.22;;;-147.77;35.19
52839;BME280;39219;53.678;9.856;2023-04-28T06:13:08;75845.19;;;-147.77;33.10
52839;BME280;39219;53.678;9.856;2023-04-28T06:15:36;75794.63;;;-147.77;32.36
52839;BME280;39219;53.678;9.856;2023-04-28T06:18:02;75863.41;;;-147.77;32.21
52839;BME280;39219;53.678;9.856;2023-04-28T06:20:30;75962.50;;;-147.77;32.72
52839;BME280;39219;53.678;9.856;2023-04-28T06:22:56;75978.69;;;-147.77;32.82
52839;BME280;39219;53.678;9.856;2023-04-28T06:25:23;75964.53;;;-147.77;32.00
52839;BME280;39219;53.678;9.856;2023-04-28T06:27:49;75907.91;;;-147.77;32.43
52839;BME280;39219;53.678;9.856;2023-04-28T06:30:17;75889.69;;;-147.77;31.93
52839;BME280;39219;53.678;9.856;2023-04-28T06:32:45;75976.66;;;-147.77;31.80
52839;BME280;39219;53.678;9.856;2023-04-28T06:35:12;75907.91;;;-147.77;32.01
52839;BME280;39219;53.678;9.856;2023-04-28T06:37:38;75778.44;;;-147.77;31.87
52839;BME280;39219;53.678;9.856;2023-04-28T06:40:06;75742.03;;;-147.77;30.79
52839;BME280;39219;53.678;9.856;2023-04-28T06:42:33;75687.44;;;-147.77;30.63
52839;BME280;39219;53.678;9.856;2023-04-28T06:44:59;75731.94;;;-147.77;30.62
52839;BME280;39219;53.678;9.856;2023-04-28T06:47:26;75885.66;;;-147.77;30.28
52839;BME280;39219;53.678;9.856;2023-04-28T06:49:54;76031.28;;;-147.77;32.24
52839;BME280;39219;53.678;9.856;2023-04-28T06:52:21;76039.38;;;-147.77;32.19
52839;BME280;39219;53.678;9.856;2023-04-28T06:54:48;76221.41;;;-147.77;32.14
52839;BME280;39219;53.678;9.856;2023-04-28T06:57:14;76322.53;;;-147.77;33.63
52839;BME280;39219;53.678;9.856;2023-04-28T06:59:41;76381.19;;;-147.77;34.44
52839;BME280;39219;53.678;9.856;2023-04-28T07:02:08;76365.03;;;-147.77;34.99
52839;BME280;39219;53.678;9.856;2023-04-28T07:04:35;76282.09;;;-147.77;33.91
52839;BME280;39219;53.678;9.856;2023-04-28T07:07:03;76172.84;;;-147.77;33.02
52839;BME280;39219;53.678;9.856;2023-04-28T07:09:32;76213.31;;;-147.77;32.74
52839;BME280;39219;53.678;9.856;2023-04-28T07:11:58;76140.50;;;-147.77;33.53
52839;BME280;39219;53.678;9.856;2023-04-28T07:14:25;76031.28;;;-147.77;32.25
52839;BME280;39219;53.678;9.856;2023-04-28T07:16:51;75946.31;;;-147.77;31.42
52839;BME280;39219;53.678;9.856;2023-04-28T07:19:18;75909.91;;;-147.77;30.54
52839;BME280;39219;53.678;9.856;2023-04-28T07:21:44;75928.13;;;-147.77;30.70
52839;BME280;39219;53.678;9.856;2023-04-28T07:24:12;76027.22;;;-147.77;31.62
52839;BME280;39219;53.678;9.856;2023-04-28T07:26:39;76065.66;;;-147.77;31.34
52839;BME280;39219;53.678;9.856;2023-04-28T07:29:05;76093.97;;;-147.77;32.53
52839;BME280;39219;53.678;9.856;2023-04-28T07:31:33;76015.09;;;-147.77;31.51
52839;BME280;39219;53.678;9.856;2023-04-28T07:33:59;76017.13;;;-147.77;30.96
52839;BME280;39219;53.678;9.856;2023-04-28T07:36:26;76043.41;;;-147.77;31.66
52839;BME280;39219;53.678;9.856;2023-04-28T07:38:53;76110.16;;;-147.77;31.20
52839;BME280;39219;53.678;9.856;2023-04-28T07:41:20;76152.63;;;-147.77;32.35
52839;BME280;39219;53.678;9.856;2023-04-28T07:43:48;76045.44;;;-147.77;31.00
52839;BME280;39219;53.678;9.856;2023-04-28T07:46:14;76045.44;;;-147.77;32.56
52839;BME280;39219;53.678;9.856;2023-04-28T07:48:41;76073.75;;;-147.77;31.53
52839;BME280;39219;53.678;9.856;2023-04-28T07:51:07;76002.97;;;-147.77;30.89
52839;BME280;39219;53.678;9.856;2023-04-28T07:53:34;75928.13;;;-147.77;31.24
52839;BME280;39219;53.678;9.856;2023-04-28T07:56:01;75899.81;;;-147.77;31.05
52839;BME280;39219;53.678;9.856;2023-04-28T07:58:29;75865.41;;;-147.77;30.28
52839;BME280;39219;53.678;9.856;2023-04-28T08:00:56;75956.44;;;-147.77;30.80
52839;BME280;39219;53.678;9.856;2023-04-28T08:03:22;76039.38;;;-147.77;32.63
52839;BME280;39219;53.678;9.856;2023-04-28T08:05:49;75930.13;;;-147.77;32.28
52839;BME280;39219;53.678;9.856;2023-04-28T08:08:15;76029.25;;;-147.77;31.15
52839;BME280;39219;53.678;9.856;2023-04-28T08:10:42;76130.38;;;-147.77;31.38
52839;BME280;39219;53.678;9.856;2023-04-28T08:13:09;76174.88;;;-147.77;33.66
52839;BME280;39219;53.678;9.856;2023-04-28T08:15:37;76185.00;;;-147.77;32.54
52839;BME280;39219;53.678;9.856;2023-04-28T08:18:03;76189.03;;;-147.77;31.70
52839;BME280;39219;53.678;9.856;2023-04-28T08:20:30;76069.69;;;-147.77;32.94
52839;BME280;39219;53.678;9.856;2023-04-28T08:22:57;76091.94;;;-147.77;32.45
52839;BME280;39219;53.678;9.856;2023-04-28T08:25:23;76152.63;;;-147.77;33.96
52839;BME280;39219;53.678;9.856;2023-04-28T08:27:50;76170.84;;;-147.77;32.84
52839;BME280;39219;53.678;9.856;2023-04-28T08:30:16;76286.13;;;-147.77;33.00
52839;BME280;39219;53.678;9.856;2023-04-28T08:32:44;76271.97;;;-147.77;33.65
52839;BME280;39219;53.678;9.856;2023-04-28T08:35:11;76229.50;;;-147.77;35.30
52839;BME280;39219;53.678;9.856;2023-04-28T08:37:39;76328.59;;;-147.77;33.94
52839;BME280;39219;53.678;9.856;2023-04-28T08:40:06;76342.78;;;-147.77;35.43
52839;BME280;39219;53.678;9.856;2023-04-28T08:42:34;76288.16;;;-147.77;36.71
52839;BME280;39219;53.678;9.856;2023-04-28T08:45:02;76253.78;;;-147.77;34.26
52839;BME280;39219;53.678;9.856;2023-04-28T08:47:33;76302.31;;;-147.77;34.21
52839;BME280;39219;53.678;9.856;2023-04-28T08:50:04;76280.06;;;-147.77;35.37
52839;BME280;39219;53.678;9.856;2023-04-28T08:52:31;76284.09;;;-147.77;34.08
52839;BME280;39219;53.678;9.856;2023-04-28T08:54:59;76352.88;;;-147.77;34.89
52839;BME280;39219;53.678;9.856;2023-04-28T08:57:26;76332.66;;;-147.77;34.10
52839;BME280;39219;53.678;9.856;2023-04-28T08:59:53;76371.09;;;-147.77;35.45
52839;BME280;39219;53.678;9.856;2023-04-28T09:02:19;76340.75;;;-147.77;35.77
52839;BME280;39219;53.678;9.856;2023-04-28T09:04:46;76348.84;;;-147.77;33.99
52839;BME280;39219;53.678;9.856;2023-04-28T09:07:13;76302.31;;;-147.77;35.15
52839;BME280;39219;53.678;9.856;2023-04-28T09:09:41;76243.66;;;-147.77;34.86
52839;BME280;39219;53.678;9.856;2023-04-28T09:12:09;76257.81;;;-147.77;34.02
52839;BME280;39219;53.678;9.856;2023-04-28T09:14:37;76274.00;;;-147.77;33.94
52839;BME280;39219;53.678;9.856;2023-04-28T09:17:09;76241.63;;;-147.77;33.82
52839;BME280;39219;53.678;9.856;2023-04-28T09:19:37;76182.97;;;-147.77;34.05
52839;BME280;39219;53.678;9.856;2023-04-28T09:22:04;76126.34;;;-147.77;33.23
52839;BME280;39219;53.678;9.856;2023-04-28T09:24:34;76106.09;;;-147.77;33.29
52839;BME280;39219;53.678;9.856;2023-04-28T09:27:03;76156.69;;;-147.77;33.03
52839;BME280;39219;53.678;9.856;2023-04-28T09:29:32;76114.19;;;-147.77;33.98
52839;BME280;39219;53.678;9.856;2023-04-28T09:32:12;76108.13;;;-147.77;33.53
52839;BME280;39219;53.678;9.856;2023-04-28T09:34:42;76148.59;;;-147.77;33.51
52839;BME280;39219;53.678;9.856;2023-04-28T09:37:14;76213.31;;;-147.77;33.50
52839;BME280;39219;53.678;9.856;2023-04-28T09:39:42;76243.66;;;-147.77;34.07
52839;BME280;39219;53.678;9.856;2023-04-28T09:42:09;76219.38;;;-147.77;33.85
52839;BME280;39219;53.678;9.856;2023-04-28T09:44:36;76193.09;;;-147.77;34.31
52839;BME280;39219;53.678;9.856;2023-04-28T09:47:18;76205.22;;;-147.77;34.57
52839;BME280;39219;53.678;9.856;2023-04-28T09:49:52;76144.53;;;-147.77;33.93
52839;BME280;39219;53.678;9.856;2023-04-28T09:52:20;76199.16;;;-147.77;34.82
52839;BME280;39219;53.678;9.856;2023-04-28T09:54:49;76209.28;;;-147.77;35.11
52839;BME280;39219;53.678;9.856;2023-04-28T09:57:16;76205.22;;;-147.77;34.89
52839;BME280;39219;53.678;9.856;2023-04-28T09:59:47;76187.03;;;-147.77;34.90
52839;BME280;39219;53.678;9.856;2023-04-28T10:02:14;76178.94;;;-147.77;35.17
52839;BME280;39219;53.678;9.856;2023-04-28T10:04:41;76162.75;;;-147.77;35.94
52839;BME280;39219;53.678;9.856;2023-04-28T10:07:10;76112.19;;;-147.77;35.70
52839;BME280;39219;53.678;9.856;2023-04-28T10:09:37;76170.84;;;-147.77;34.67
52839;BME280;39219;53.678;9.856;2023-04-28T10:12:06;76233.53;;;-147.77;34.76
52839;BME280;39219;53.678;9.856;2023-04-28T10:14:33;76235.56;;;-147.77;34.81
52839;BME280;39219;53.678;9.856;2023-04-28T10:17:01;76221.41;;;-147.77;35.13
52839;BME280;39219;53.678;9.856;2023-04-28T10:19:29;76211.28;;;-147.77;35.73
52839;BME280;39219;53.678;9.856;2023-04-28T10:22:06;76201.19;;;-147.77;35.28
52839;BME280;39219;53.678;9.856;2023-04-28T10:24:52;76245.69;;;-147.77;34.96
52839;BME280;39219;53.678;9.856;2023-04-28T10:27:28;76290.19;;;-147.77;35.89
52839;BME280;39219;53.678;9.856;2023-04-28T10:30:08;76263.88;;;-147.77;36.26
52839;BME280;39219;53.678;9.856;2023-04-28T10:32:36;76286.13;;;-147.77;35.38
52839;BME280;39219;53.678;9.856;2023-04-28T10:38:08;76245.69;;;-147.77;36.65
52839;BME280;39219;53.678;9.856;2023-04-28T10:40:36;76235.56;;;-147.77;36.29
52839;BME280;39219;53.678;9.856;2023-04-28T10:43:05;76251.75;;;-147.77;35.66
52839;BME280;39219;53.678;9.856;2023-04-28T10:46:00;76239.59;;;-147.77;37.32
52839;BME280;39219;53.678;9.856;2023-04-28T10:48:53;76199.16;;;-147.77;36.01
52839;BME280;39219;53.678;9.856;2023-04-28T10:51:27;76207.25;;;-147.77;35.73
52839;BME280;39219;53.678;9.856;2023-04-28T10:54:15;76146.56;;;-147.77;35.72
52839;BME280;39219;53.678;9.856;2023-04-28T10:57:17;76142.53;;;-147.77;35.13
52839;BME280;39219;53.678;9.856;2023-04-28T10:59:46;76164.78;;;-147.77;35.33
52839;BME280;39219;53.678;9.856;2023-04-28T11:02:40;76185.00;;;-147.77;34.96
52839;BME280;39219;53.678;9.856;2023-04-28T11:05:18;76168.81;;;-147.77;36.10
52839;BME280;39219;53.678;9.856;2023-04-28T11:11:19;76108.13;;;-147.77;34.86
52839;BME280;39219;53.678;9.856;2023-04-28T11:13:46;76126.34;;;-147.77;35.05
52839;BME280;39219;53.678;9.856;2023-04-28T11:16:16;76120.28;;;-147.77;37.27
52839;BME280;39219;53.678;9.856;2023-04-28T11:18:52;76071.72;;;-147.77;35.21
52839;BME280;39219;53.678;9.856;2023-04-28T11:21:19;76096.00;;;-147.77;34.96
52839;BME280;39219;53.678;9.856;2023-04-28T11:23:46;76108.13;;;-147.77;34.84
52839;BME280;39219;53.678;9.856;2023-04-28T11:26:13;76071.72;;;-147.77;35.71
52839;BME280;39219;53.678;9.856;2023-04-28T11:28:47;76108.13;;;-147.77;37.51
52839;BME280;39219;53.678;9.856;2023-04-28T11:31:16;76047.44;;;-147.77;36.25
52839;BME280;39219;53.678;9.856;2023-04-28T11:33:46;76063.63;;;-147.77;36.53
52839;BME280;39219;53.678;9.856;2023-04-28T11:36:24;76067.69;;;-147.77;35.76
52839;BME280;39219;53.678;9.856;2023-04-28T11:38:52;76031.28;;;-147.77;34.87
52839;BME280;39219;53.678;9.856;2023-04-28T11:41:18;76021.16;;;-147.77;34.92
52839;BME280;39219;53.678;9.856;2023-04-28T11:43:45;76011.03;;;-147.77;34.81
52839;BME280;39219;53.678;9.856;2023-04-28T11:46:16;76033.28;;;-147.77;34.93
52839;BME280;39219;53.678;9.856;2023-04-28T11:48:43;76116.22;;;-147.77;34.91
52839;BME280;39219;53.678;9.856;2023-04-28T11:51:10;76087.91;;;-147.77;35.66
52839;BME280;39219;53.678;9.856;2023-04-28T11:53:51;76063.63;;;-147.77;35.90
52839;BME280;39219;53.678;9.856;2023-04-28T11:56:18;76047.44;;;-147.77;35.52
52839;BME280;39219;53.678;9.856;2023-04-28T11:58:45;76093.97;;;-147.77;35.82
52839;BME280;39219;53.678;9.856;2023-04-28T12:01:12;76112.19;;;-147.77;35.58
52839;BME280;39219;53.678;9.856;2023-04-28T12:03:44;76106.09;;;-147.77;36.19
52839;BME280;39219;53.678;9.856;2023-04-28T12:06:11;76096.00;;;-147.77;36.58
52839;BME280;39219;53.678;9.856;2023-04-28T12:08:37;76075.78;;;-147.77;36.46
52839;BME280;39219;53.678;9.856;2023-04-28T12:11:07;76063.63;;;-147.77;36.88
52839;BME280;39219;53.678;9.856;2023-04-28T12:13:35;76063.63;;;-147.77;36.56
52839;BME280;39219;53.678;9.856;2023-04-28T12:16:03;76102.06;;;-147.77;37.45
52839;BME280;39219;53.678;9.856;2023-04-28T12:18:30;76100.03;;;-147.77;36.44
52839;BME280;39219;53.678;9.856;2023-04-28T12:20:58;76124.31;;;-147.77;36.17
52839;BME280;39219;53.678;9.856;2023-04-28T12:23:29;76102.06;;;-147.77;37.00
52839;BME280;39219;53.678;9.856;2023-04-28T12:25:56;76073.75;;;-147.77;37.32
52839;BME280;39219;53.678;9.856;2023-04-28T12:28:23;76096.00;;;-147.77;36.84
52839;BME280;39219;53.678;9.856;2023-04-28T12:31:01;76104.09;;;-147.77;36.81
52839;BME280;39219;53.678;9.856;2023-04-28T12:33:28;76102.06;;;-147.77;38.55
52839;BME280;39219;53.678;9.856;2023-04-28T12:35:55;76071.72;;;-147.77;37.17
52839;BME280;39219;53.678;9.856;2023-04-28T12:38:24;76124.31;;;-147.77;37.07
52839;BME280;39219;53.678;9.856;2023-04-28T12:40:51;76116.22;;;-147.77;36.85
52839;BME280;39219;53.678;9.856;2023-04-28T12:43:18;76114.19;;;-147.77;37.05
52839;BME280;39219;53.678;9.856;2023-04-28T12:45:47;76148.59;;;-147.77;37.44
52839;BME280;39219;53.678;9.856;2023-04-28T12:48:14;76136.44;;;-147.77;37.42
52839;BME280;39219;53.678;9.856;2023-04-28T12:50:40;76132.41;;;-147.77;37.50